Terminal Aerodrome Forecast
Issued by NWS

Home | Current Version | Previous Version | Text Only | Print | Product List | Glossary On
Versions: 1 2 3 4 5 6 7 8 9 10 11 12 13
000
FTUS45 KVEF 011100
TAFHND
TAF
KHND 011137Z 0112/0212 20006KT P6SM BKN070 OVC080
     FM011500 13006KT P6SM BKN070
     FM012300 15006KT P6SM -RA SCT040 BKN050 OVC070
     FM020100 18005KT P6SM -RA SCT040 BKN050 OVC070
      TEMPO 0204/0208 4SM RA BR SCT025 BKN040 OVC050=

USA.gov is the U.S. government's official web portal to all federal, state and local government web resources and services.